Terminal Aerodrome Forecast
Issued by NWS

Home | Current Version | Previous Version | Graphics & Text | Print | Product List | Glossary On
Versions: 1 2 3 4 5 6 7 8 9 10 11 12 13 14 15 16 17
000
FTUS43 KPAH 211100
TAFCGI
TAF
KCGI 211127Z 2112/2212 00000KT 2SM BR SKC
      TEMPO 2112/2113 1/2SM FG VV002
     FM211300 00000KT 5SM BR SKC
     FM211400 VRB03KT P6SM FEW050=

USA.gov is the U.S. government's official web portal to all federal, state and local government web resources and services.